Observation data for Reese Center on 05/14/2018      Previous  Date  Next       Current Mesonet Observations  Soil Data  Daily Summary Page  Observations in Plain Language
KREE 140500Z 18013KT 25/14 A2995 RMK A01 T02490138  RH  051%=      5-min Rain = 0
KREE 140505Z 18013KT 25/14 A2995 RMK A01 T02470138  RH  052%=      5-min Rain = 0
KREE 140510Z 18012KT 25/14 A2995 RMK A01 T02460139  RH  053%=      5-min Rain = 0
KREE 140515Z 18011KT 24/14 A2995 RMK A01 T02440140  RH  053%=      5-min Rain = 0
KREE 140520Z 18011KT 24/14 A2995 RMK A01 T02430140  RH  054%=      5-min Rain = 0
KREE 140525Z 18012KT 24/14 A2995 RMK A01 T02430140  RH  054%=      5-min Rain = 0
KREE 140530Z 18012KT 24/14 A2995 RMK A01 T02430140  RH  054%=      5-min Rain = 0
KREE 140535Z 18013KT 24/14 A2995 RMK A01 T02430140  RH  054%=      5-min Rain = 0
KREE 140540Z 18012KT 24/14 A2995 RMK A01 T02420140  RH  054%=      5-min Rain = 0
KREE 140545Z 18013KT 24/14 A2995 RMK A01 T02410140  RH  054%=      5-min Rain = 0
KREE 140550Z 18012KT 24/14 A2995 RMK A01 T02410139  RH  054%=      5-min Rain = 0
KREE 140555Z 18013KT 24/14 A2995 RMK A01 T02410139  RH  054%=      5-min Rain = 0
KREE 140600Z 18013KT 24/14 A2995 RMK A01 T02400139  RH  054%=      5-min Rain = 0
KREE 140605Z 18012KT 24/14 A2995 RMK A01 T02390139  RH  055%=      5-min Rain = 0
KREE 140610Z 19012KT 24/14 A2995 RMK A01 T02380139  RH  055%=      5-min Rain = 0
KREE 140615Z 19012KT 24/14 A2995 RMK A01 T02370139  RH  055%=      5-min Rain = 0
KREE 140620Z 18012KT 24/14 A2995 RMK A01 T02360139  RH  056%=      5-min Rain = 0
KREE 140625Z 18011KT 23/14 A2995 RMK A01 T02340139  RH  056%=      5-min Rain = 0
KREE 140630Z 18013KT 23/14 A2995 RMK A01 T02330138  RH  056%=      5-min Rain = 0
KREE 140635Z 18012KT 23/14 A2995 RMK A01 T02320139  RH  057%=      5-min Rain = 0
KREE 140640Z 19012KT 23/14 A2995 RMK A01 T02310139  RH  057%=      5-min Rain = 0
KREE 140645Z 19012KT 23/14 A2995 RMK A01 T02310139  RH  057%=      5-min Rain = 0
KREE 140650Z 18011KT 23/14 A2995 RMK A01 T02290139  RH  058%=      5-min Rain = 0
KREE 140655Z 18011KT 23/14 A2995 RMK A01 T02270139  RH  059%=      5-min Rain = 0
KREE 140700Z 19011KT 23/14 A2995 RMK A01 T02260139  RH  059%=      5-min Rain = 0
KREE 140705Z 19011KT 23/14 A2995 RMK A01 T02250138  RH  059%=      5-min Rain = 0
KREE 140710Z 19011KT 22/14 A2995 RMK A01 T02240138  RH  059%=      5-min Rain = 0
KREE 140715Z 19011KT 22/14 A2995 RMK A01 T02230138  RH  060%=      5-min Rain = 0
KREE 140720Z 19011KT 22/14 A2995 RMK A01 T02220137  RH  060%=      5-min Rain = 0
KREE 140725Z 19010KT 22/14 A2995 RMK A01 T02220137  RH  060%=      5-min Rain = 0
KREE 140730Z 19009KT 22/14 A2995 RMK A01 T02200137  RH  060%=      5-min Rain = 0
KREE 140735Z 19009KT 22/14 A2995 RMK A01 T02180136  RH  061%=      5-min Rain = 0
KREE 140740Z 18009KT 22/14 A2995 RMK A01 T02160136  RH  061%=      5-min Rain = 0
KREE 140745Z 18008KT 22/14 A2995 RMK A01 T02150136  RH  062%=      5-min Rain = 0
KREE 140750Z 18009KT 21/14 A2995 RMK A01 T02140136  RH  062%=      5-min Rain = 0
KREE 140755Z 19009KT 21/14 A2994 RMK A01 T02130136  RH  063%=      5-min Rain = 0
KREE 140800Z 19008KT 21/14 A2994 RMK A01 T02110135  RH  063%=      5-min Rain = 0
KREE 140805Z 19010KT 21/14 A2994 RMK A01 T02100135  RH  064%=      5-min Rain = 0
KREE 140810Z 19009KT 21/14 A2994 RMK A01 T02100135  RH  063%=      5-min Rain = 0
KREE 140815Z 19009KT 21/14 A2994 RMK A01 T02080135  RH  064%=      5-min Rain = 0
KREE 140820Z 19010KT 21/14 A2994 RMK A01 T02080135  RH  064%=      5-min Rain = 0
KREE 140825Z 20010KT 21/14 A2994 RMK A01 T02080136  RH  065%=      5-min Rain = 0
KREE 140830Z 20011KT 21/14 A2994 RMK A01 T02110137  RH  064%=      5-min Rain = 0
KREE 140835Z 19010KT 21/14 A2994 RMK A01 T02110138  RH  064%=      5-min Rain = 0
KREE 140840Z 19010KT 21/14 A2994 RMK A01 T02100138  RH  065%=      5-min Rain = 0
KREE 140845Z 19010KT 21/14 A2994 RMK A01 T02080138  RH  065%=      5-min Rain = 0
KREE 140850Z 20009KT 21/14 A2994 RMK A01 T02070137  RH  066%=      5-min Rain = 0
KREE 140855Z 20008KT 21/14 A2994 RMK A01 T02050137  RH  066%=      5-min Rain = 0
KREE 140900Z 20009KT 20/14 A2994 RMK A01 T02020137  RH  067%=      5-min Rain = 0
KREE 140905Z 20008KT 20/14 A2994 RMK A01 T02010138  RH  068%=      5-min Rain = 0
KREE 140910Z 20009KT 20/14 A2994 RMK A01 T02010138  RH  068%=      5-min Rain = 0
KREE 140915Z 20009KT 20/14 A2994 RMK A01 T02000138  RH  069%=      5-min Rain = 0
KREE 140920Z 20009KT 20/14 A2994 RMK A01 T02000139  RH  069%=      5-min Rain = 0
KREE 140925Z 21008KT 20/14 A2994 RMK A01 T01990139  RH  069%=      5-min Rain = 0
KREE 140930Z 21008KT 20/14 A2994 RMK A01 T01970139  RH  071%=      5-min Rain = 0
KREE 140935Z 21008KT 20/14 A2994 RMK A01 T01950140  RH  072%=      5-min Rain = 0
KREE 140940Z 20008KT 20/14 A2994 RMK A01 T01950139  RH  072%=      5-min Rain = 0
KREE 140945Z 19007KT 19/14 A2994 RMK A01 T01940138  RH  071%=      5-min Rain = 0
KREE 140950Z 18008KT 19/14 A2994 RMK A01 T01930138  RH  072%=      5-min Rain = 0
KREE 140955Z 18009KT 19/14 A2994 RMK A01 T01930139  RH  072%=      5-min Rain = 0
KREE 141000Z 19010KT 19/14 A2994 RMK A01 T01930139  RH  072%=      5-min Rain = 0
KREE 141005Z 18009KT 19/14 A2995 RMK A01 T01910138  RH  073%=      5-min Rain = 0
KREE 141010Z 16009KT 19/14 A2995 RMK A01 T01870137  RH  074%=      5-min Rain = 0
KREE 141015Z 17009KT 19/14 A2995 RMK A01 T01850138  RH  075%=      5-min Rain = 0
KREE 141020Z 16008KT 19/14 A2996 RMK A01 T01850138  RH  075%=      5-min Rain = 0
KREE 141025Z 17008KT 18/14 A2996 RMK A01 T01840137  RH  076%=      5-min Rain = 0
KREE 141030Z 18009KT 19/14 A2996 RMK A01 T01860140  RH  076%=      5-min Rain = 0
KREE 141035Z 18008KT 19/14 A2996 RMK A01 T01900141  RH  075%=      5-min Rain = 0
KREE 141040Z 18008KT 19/14 A2996 RMK A01 T01890141  RH  075%=      5-min Rain = 0
KREE 141045Z 18008KT 19/14 A2996 RMK A01 T01890141  RH  075%=      5-min Rain = 0
KREE 141050Z 18008KT 19/14 A2996 RMK A01 T01870140  RH  076%=      5-min Rain = 0
KREE 141055Z 17008KT 18/14 A2996 RMK A01 T01840139  RH  077%=      5-min Rain = 0
KREE 141100Z 18009KT 18/14 A2996 RMK A01 T01830139  RH  077%=      5-min Rain = 0
KREE 141105Z 18009KT 18/14 A2996 RMK A01 T01820139  RH  078%=      5-min Rain = 0
KREE 141110Z 18008KT 18/14 A2996 RMK A01 T01800139  RH  078%=      5-min Rain = 0
KREE 141115Z 17008KT 18/14 A2996 RMK A01 T01790139  RH  079%=      5-min Rain = 0
KREE 141120Z 18008KT 18/14 A2996 RMK A01 T01780139  RH  079%=      5-min Rain = 0
KREE 141125Z 18007KT 18/14 A2996 RMK A01 T01790140  RH  080%=      5-min Rain = 0
KREE 141130Z 19007KT 18/14 A2996 RMK A01 T01790140  RH  080%=      5-min Rain = 0
KREE 141135Z 18007KT 18/14 A2996 RMK A01 T01770140  RH  080%=      5-min Rain = 0
KREE 141140Z 18007KT 18/14 A2996 RMK A01 T01770140  RH  081%=      5-min Rain = 0
KREE 141145Z 18007KT 18/14 A2996 RMK A01 T01760140  RH  081%=      5-min Rain = 0
KREE 141150Z 19007KT 18/14 A2997 RMK A01 T01750140  RH  082%=      5-min Rain = 0
KREE 141155Z 18006KT 18/14 A2996 RMK A01 T01750140  RH  082%=      5-min Rain = 0
KREE 141200Z 19006KT 17/14 A2997 RMK A01 T01740140  RH  082%=      5-min Rain = 0
KREE 141205Z 19006KT 17/14 A2997 RMK A01 T01730139  RH  082%=      5-min Rain = 0
KREE 141210Z 20006KT 17/14 A2998 RMK A01 T01710138  RH  082%=      5-min Rain = 0
KREE 141215Z 20006KT 17/14 A2998 RMK A01 T01690137  RH  083%=      5-min Rain = 0
KREE 141220Z 20006KT 17/14 A2998 RMK A01 T01680137  RH  084%=      5-min Rain = 0
KREE 141225Z 20007KT 17/14 A2999 RMK A01 T01690139  RH  084%=      5-min Rain = 0
KREE 141230Z 20007KT 18/14 A2999 RMK A01 T01750141  RH  082%=      5-min Rain = 0
KREE 141235Z 19007KT 18/14 A2999 RMK A01 T01800142  RH  080%=      5-min Rain = 0
KREE 141240Z 18006KT 18/14 A2999 RMK A01 T01830143  RH  079%=      5-min Rain = 0
KREE 141245Z 18006KT 19/15 A2999 RMK A01 T01860145  RH  078%=      5-min Rain = 0
KREE 141250Z 18005KT 19/15 A30 RMK A01 T01900147  RH  077%=      5-min Rain = 0
KREE 141255Z 17006KT 19/15 A30 RMK A01 T01930148  RH  077%=      5-min Rain = 0
KREE 141300Z 18006KT 20/15 A30 RMK A01 T01950149  RH  076%=      5-min Rain = 0
KREE 141305Z 17005KT 20/15 A30 RMK A01 T01990151  RH  076%=      5-min Rain = 0
KREE 141310Z 17006KT 20/15 A30 RMK A01 T02030153  RH  075%=      5-min Rain = 0
KREE 141315Z 17008KT 21/16 A30 RMK A01 T02050155  RH  075%=      5-min Rain = 0
KREE 141320Z 17007KT 21/16 A30 RMK A01 T02090156  RH  074%=      5-min Rain = 0
KREE 141325Z 17008KT 21/16 A30 RMK A01 T02110157  RH  073%=      5-min Rain = 0
KREE 141330Z 17009KT 21/16 A30 RMK A01 T02130159  RH  073%=      5-min Rain = 0
KREE 141335Z 17010KT 22/16 A30 RMK A01 T02170161  RH  072%=      5-min Rain = 0
KREE 141340Z 17011KT 22/16 A30 RMK A01 T02190162  RH  072%=      5-min Rain = 0
KREE 141345Z 17012KT 22/16 A30 RMK A01 T02210162  RH  071%=      5-min Rain = 0
KREE 141350Z 17011KT 22/16 A30 RMK A01 T02240163  RH  070%=      5-min Rain = 0
KREE 141355Z 17012KT 23/16 A30 RMK A01 T02250163  RH  070%=      5-min Rain = 0
KREE 141400Z 18011KT 23/16 A30 RMK A01 T02270163  RH  069%=      5-min Rain = 0
KREE 141405Z 18012KT 23/16 A30 RMK A01 T02290163  RH  068%=      5-min Rain = 0
KREE 141410Z 18012KT 23/16 A30 RMK A01 T02300163  RH  067%=      5-min Rain = 0
KREE 141415Z 18013G18KT 23/16 A3001 RMK A01 T02310162  RH  067%=      5-min Rain = 0
KREE 141420Z 18012KT 23/16 A3001 RMK A01 T02320163  RH  066%=      5-min Rain = 0
KREE 141425Z 19013KT 23/16 A3001 RMK A01 T02330162  RH  066%=      5-min Rain = 0
KREE 141430Z 19012KT 23/16 A3001 RMK A01 T02330162  RH  066%=      5-min Rain = 0
KREE 141435Z 19013KT 23/16 A3001 RMK A01 T02340161  RH  065%=      5-min Rain = 0
KREE 141440Z 19012G17KT 23/16 A3001 RMK A01 T02340162  RH  065%=      5-min Rain = 0
KREE 141445Z 19013KT 24/16 A3001 RMK A01 T02380160  RH  063%=      5-min Rain = 0
KREE 141450Z 20011KT 24/16 A3001 RMK A01 T02380160  RH  063%=      5-min Rain = 0
KREE 141455Z 19012KT 24/16 A3001 RMK A01 T02420160  RH  062%=      5-min Rain = 0
KREE 141500Z 20012G17KT 24/16 A3001 RMK A01 T02420160  RH  061%=      5-min Rain = 0
KREE 141505Z 19011KT 24/16 A30 RMK A01 T02430160  RH  061%=      5-min Rain = 0
KREE 141510Z 19011KT 25/16 A30 RMK A01 T02460160  RH  060%=      5-min Rain = 0
KREE 141515Z 19010G15KT 25/16 A30 RMK A01 T02490160  RH  059%=      5-min Rain = 0
KREE 141520Z 20011G18KT 25/16 A30 RMK A01 T02490160  RH  059%=      5-min Rain = 0
KREE 141525Z 20010G15KT 25/16 A30 RMK A01 T02490155  RH  057%=      5-min Rain = 0
KREE 141530Z 20011KT 25/16 A3001 RMK A01 T02520158  RH  057%=      5-min Rain = 0
KREE 141535Z 21009G14KT 25/16 A30 RMK A01 T02530155  RH  056%=      5-min Rain = 0
KREE 141540Z 19009G15KT 25/16 A30 RMK A01 T02540155  RH  055%=      5-min Rain = 0
KREE 141545Z 20010KT 26/15 A30 RMK A01 T02570153  RH  054%=      5-min Rain = 0
KREE 141550Z 18009G15KT 26/15 A30 RMK A01 T02630154  RH  052%=      5-min Rain = 0
KREE 141555Z 18009KT 27/15 A30 RMK A01 T02650152  RH  051%=      5-min Rain = 0
KREE 141600Z 19011KT 27/15 A30 RMK A01 T02670154  RH  051%=      5-min Rain = 0
KREE 141605Z 21008G13KT 27/15 A30 RMK A01 T02680151  RH  050%=      5-min Rain = 0
KREE 141610Z 20010KT 27/15 A30 RMK A01 T02710147  RH  048%=      5-min Rain = 0
KREE 141615Z 19010KT 27/14 A30 RMK A01 T02740144  RH  046%=      5-min Rain = 0
KREE 141620Z 22008KT 27/13 A30 RMK A01 T02730134  RH  043%=      5-min Rain = 0
KREE 141625Z 18010G17KT 28/14 A2999 RMK A01 T02780139  RH  043%=      5-min Rain = 0
KREE 141630Z 22008KT 28/13 A2999 RMK A01 T02810133  RH  041%=      5-min Rain = 0
KREE 141635Z 24008KT 28/12 A2999 RMK A01 T02760123  RH  039%=      5-min Rain = 0
KREE 141640Z 23006KT 28/11 A2999 RMK A01 T02780114  RH  037%=      5-min Rain = 0
KREE 141645Z 19005KT 28/12 A2999 RMK A01 T02840122  RH  037%=      5-min Rain = 0
KREE 141650Z 23006KT 29/12 A2999 RMK A01 T02860115  RH  035%=      5-min Rain = 0
KREE 141655Z 21005KT 29/11 A2999 RMK A01 T02850111  RH  035%=      5-min Rain = 0
KREE 141700Z 19006KT 28/12 A2999 RMK A01 T02840117  RH  036%=      5-min Rain = 0
KREE 141705Z 14004KT 29/11 A2999 RMK A01 T02860109  RH  034%=      5-min Rain = 0
KREE 141710Z 21007G12KT 29/12 A2999 RMK A01 T02850123  RH  037%=      5-min Rain = 0
KREE 141715Z 21007G12KT 28/13 A2999 RMK A01 T02830125  RH  038%=      5-min Rain = 0
KREE 141720Z 18008G13KT 29/13 A2999 RMK A01 T02870126  RH  038%=      5-min Rain = 0
KREE 141725Z 18009G14KT 29/12 A2999 RMK A01 T02900123  RH  036%=      5-min Rain = 0
KREE 141730Z 17009G14KT 29/12 A2999 RMK A01 T02910121  RH  036%=      5-min Rain = 0
KREE 141735Z 18010KT 29/12 A2999 RMK A01 T02860122  RH  037%=      5-min Rain = 0
KREE 141740Z 21011KT 29/13 A2999 RMK A01 T02870133  RH  040%=      5-min Rain = 0
KREE 141745Z 22011KT 29/14 A2999 RMK A01 T02880135  RH  040%=      5-min Rain = 0
KREE 141750Z 18010KT 29/13 A2999 RMK A01 T02860130  RH  039%=      5-min Rain = 0
KREE 141755Z 19008G13KT 29/12 A2999 RMK A01 T02910124  RH  037%=      5-min Rain = 0
KREE 141800Z 19008KT 29/12 A2999 RMK A01 T02870124  RH  037%=      5-min Rain = 0
KREE 141805Z 19008G13KT 29/12 A2999 RMK A01 T02870118  RH  036%=      5-min Rain = 0
KREE 141810Z 23005KT 29/11 A2999 RMK A01 T02880111  RH  034%=      5-min Rain = 0
KREE 141815Z 21005G10KT 30/11 A2998 RMK A01 T02950112  RH  033%=      5-min Rain = 0
KREE 141820Z 16003KT 30/11 A2998 RMK A01 T02990110  RH  032%=      5-min Rain = 0
KREE 141825Z 22006KT 30/11 A2997 RMK A01 T03010112  RH  032%=      5-min Rain = 0
KREE 141830Z 24005KT 30/11 A2997 RMK A01 T03000114  RH  032%=      5-min Rain = 0
KREE 141835Z 23002G7KT 30/11 A2997 RMK A01 T03010112  RH  032%=      5-min Rain = 0
KREE 141840Z 25006KT 30/11 A2997 RMK A01 T03000114  RH  032%=      5-min Rain = 0
KREE 141845Z 22006G12KT 30/12 A2996 RMK A01 T02990115  RH  033%=      5-min Rain = 0
KREE 141850Z 21007KT 30/11 A2996 RMK A01 T03030108  RH  031%=      5-min Rain = 0
KREE 141855Z 21004KT 31/11 A2996 RMK A01 T03060106  RH  030%=      5-min Rain = 0
KREE 141900Z 19004G10KT 31/11 A2996 RMK A01 T03130108  RH  029%=      5-min Rain = 0
KREE 141905Z 18008KT 31/11 A2996 RMK A01 T03130110  RH  029%=      5-min Rain = 0
KREE 141910Z 20007KT 30/11 A2996 RMK A01 T03040110  RH  031%=      5-min Rain = 0
KREE 141915Z 22010G15KT 30/11 A2995 RMK A01 T03020112  RH  031%=      5-min Rain = 0
KREE 141920Z 22011G17KT 31/12 A2995 RMK A01 T03060116  RH  031%=      5-min Rain = 0
KREE 141925Z 17012G18KT 31/11 A2995 RMK A01 T03130110  RH  029%=      5-min Rain = 0
KREE 141930Z 19012KT 32/11 A2995 RMK A01 T03180112  RH  029%=      5-min Rain = 0
KREE 141935Z 22009KT 31/11 A2995 RMK A01 T03140110  RH  029%=      5-min Rain = 0
KREE 141940Z 17008G13KT 31/11 A2995 RMK A01 T03140109  RH  029%=      5-min Rain = 0
KREE 141945Z 17011G17KT 32/11 A2994 RMK A01 T03210113  RH  028%=      5-min Rain = 0
KREE 141950Z 19012G17KT 32/11 A2994 RMK A01 T03200112  RH  028%=      5-min Rain = 0
KREE 141955Z 21008KT 32/11 A2994 RMK A01 T03150107  RH  028%=      5-min Rain = 0
KREE 142000Z 18011G16KT 31/10 A2994 RMK A01 T03130104  RH  028%=      5-min Rain = 0
KREE 142005Z 18012G17KT 31/11 A2993 RMK A01 T03100106  RH  029%=      5-min Rain = 0
KREE 142010Z 19009G18KT 31/11 A2993 RMK A01 T03130109  RH  029%=      5-min Rain = 0
KREE 142015Z 20013G19KT 32/11 A2993 RMK A01 T03190108  RH  028%=      5-min Rain = 0
KREE 142020Z 22011G16KT 32/11 A2993 RMK A01 T03160106  RH  028%=      5-min Rain = 0
KREE 142025Z 21010G18KT 32/11 A2992 RMK A01 T03190106  RH  028%=      5-min Rain = 0
KREE 142030Z 20009G15KT 32/10 A2992 RMK A01 T03190102  RH  027%=      5-min Rain = 0
KREE 142035Z 18012G18KT 31/10 A2991 RMK A01 T03140102  RH  027%=      5-min Rain = 0
KREE 142040Z 19011KT 32/10 A299 RMK A01 T03170100  RH  027%=      5-min Rain = 0
KREE 142045Z 19013G18KT 32/09 A299 RMK A01 T03200087  RH  024%=      5-min Rain = 0
KREE 142050Z 22012G17KT 32/10 A2989 RMK A01 T03200097  RH  026%=      5-min Rain = 0
KREE 142055Z 20014G20KT 32/09 A2989 RMK A01 T03200086  RH  024%=      5-min Rain = 0
KREE 142100Z 20016G22KT 32/08 A2988 RMK A01 T03230084  RH  023%=      5-min Rain = 0
KREE 142105Z 24015G22KT 32/08 A2988 RMK A01 T03210079  RH  023%=      5-min Rain = 0
KREE 142110Z 23013G18KT 32/08 A2988 RMK A01 T03230082  RH  023%=      5-min Rain = 0
KREE 142115Z 23011G18KT 33/08 A2987 RMK A01 T03250075  RH  022%=      5-min Rain = 0
KREE 142120Z 24012G17KT 32/07 A2987 RMK A01 T03240070  RH  021%=      5-min Rain = 0
KREE 142125Z 25014G22KT 33/07 A2987 RMK A01 T03270066  RH  020%=      5-min Rain = 0
KREE 142130Z 24016G22KT 33/06 A2987 RMK A01 T03280056  RH  019%=      5-min Rain = 0
KREE 142135Z 22017G23KT 33/04 A2987 RMK A01 T03250041  RH  017%=      5-min Rain = 0
KREE 142140Z 24017G24KT 33/03 A2987 RMK A01 T03280030  RH  016%=      5-min Rain = 0
KREE 142145Z 25013G21KT 33/03 A2987 RMK A01 T03270032  RH  016%=      5-min Rain = 0
KREE 142150Z 24015G22KT 33/04 A2986 RMK A01 T03260039  RH  017%=      5-min Rain = 0
KREE 142155Z 25012G18KT 33/04 A2986 RMK A01 T03250044  RH  017%=      5-min Rain = 0
KREE 142200Z 25017G25KT 33/04 A2986 RMK A01 T03270037  RH  016%=      5-min Rain = 0
KREE 142205Z 27015KT 33/04 A2986 RMK A01 T03280037  RH  016%=      5-min Rain = 0
KREE 142210Z 26015G20KT 33/03 A2986 RMK A01 T03290026  RH  015%=      5-min Rain = 0
KREE 142215Z 24013G20KT 33/02 A2986 RMK A01 T03290015  RH  014%=      5-min Rain = 0
KREE 142220Z 24016G21KT 33/01 A2986 RMK A01 T03290012  RH  013%=      5-min Rain = 0
KREE 142225Z 25016G23KT 33/01 A2986 RMK A01 T03270007  RH  013%=      5-min Rain = 0
KREE 142230Z 28012G20KT 33/01 A2986 RMK A01 T03260006  RH  013%=      5-min Rain = 0
KREE 142235Z 27012G18KT 33/01 A2986 RMK A01 T03270010  RH  013%=      5-min Rain = 0
KREE 142240Z 26007KT 33/01 A2986 RMK A01 T03280012  RH  014%=      5-min Rain = 0
KREE 142245Z 29012G18KT 33/01 A2986 RMK A01 T03300010  RH  013%=      5-min Rain = 0
KREE 142250Z 27007KT 33/01 A2986 RMK A01 T03290013  RH  014%=      5-min Rain = 0
KREE 142255Z 25010G18KT 33/02 A2986 RMK A01 T03320022  RH  014%=      5-min Rain = 0
KREE 142300Z 26015G20KT 33/01 A2986 RMK A01 T03320013  RH  013%=      5-min Rain = 0
KREE 142305Z 26011KT 33/01 A2985 RMK A01 T03290014  RH  014%=      5-min Rain = 0
KREE 142310Z 24014KT 33/01 A2985 RMK A01 T03300008  RH  013%=      5-min Rain = 0
KREE 142315Z 24012KT 33/00 A2985 RMK A01 T03290002  RH  013%=      5-min Rain = 0
KREE 142320Z 24013G19KT 33/00 A2985 RMK A01 T03300003  RH  013%=      5-min Rain = 0
KREE 142325Z 26011G16KT 33/00 A2985 RMK A01 T03290002  RH  013%=      5-min Rain = 0
KREE 142330Z 27013KT 33/00 A2985 RMK A01 T03290002  RH  013%=      5-min Rain = 0
KREE 142335Z 26012KT 33/00 A2985 RMK A01 T03270002  RH  013%=      5-min Rain = 0
KREE 142340Z 24009KT 33/00 A2985 RMK A01 T03280002  RH  013%=      5-min Rain = 0
KREE 142345Z 23011KT 33/00 A2985 RMK A01 T032800-0  RH  012%=      5-min Rain = 0
KREE 142350Z 24010KT 33/M00 A2985 RMK A01 T03271002  RH  012%=      5-min Rain = 0
KREE 142355Z 22010KT 33/M00 A2985 RMK A01 T03261003  RH  012%=      5-min Rain = 0
KREE 150000Z 25010G15KT 33/M00 A2985 RMK A01 T03271001  RH  012%=      5-min Rain = 0
KREE 150005Z 24010G15KT 33/M00 A2985 RMK A01 T03261003  RH  012%=      5-min Rain = 0
KREE 150010Z 23010G15KT 33/M00 A2985 RMK A01 T03251001  RH  013%=      5-min Rain = 0
KREE 150015Z 23008G13KT 32/M00 A2985 RMK A01 T03211001  RH  013%=      5-min Rain = 0
KREE 150020Z 21006KT 32/00 A2985 RMK A01 T03230001  RH  013%=      5-min Rain = 0
KREE 150025Z 19009KT 32/01 A2985 RMK A01 T03240006  RH  013%=      5-min Rain = 0
KREE 150030Z 19006KT 32/00 A2986 RMK A01 T032400-0  RH  013%=      5-min Rain = 0
KREE 150035Z 10001KT 32/03 A2986 RMK A01 T03230027  RH  016%=      5-min Rain = 0
KREE 150040Z 09011G18KT 31/08 A2986 RMK A01 T03090082  RH  025%=      5-min Rain = 0
KREE 150045Z 09015G20KT 28/11 A2986 RMK A01 T02800107  RH  035%=      5-min Rain = 0
KREE 150050Z 09015G20KT 28/10 A2986 RMK A01 T02770103  RH  034%=      5-min Rain = 0
KREE 150055Z 09018KT 27/11 A2986 RMK A01 T02730106  RH  036%=      5-min Rain = 0
KREE 150100Z 09016KT 27/11 A2986 RMK A01 T02670108  RH  038%=      5-min Rain = 0
KREE 150105Z 08019KT 26/11 A2986 RMK A01 T02610107  RH  039%=      5-min Rain = 0
KREE 150110Z 09020G25KT 26/11 A2986 RMK A01 T02560109  RH  040%=      5-min Rain = 0
KREE 150115Z 08017KT 25/11 A2987 RMK A01 T02510110  RH  042%=      5-min Rain = 0
KREE 150120Z 08018G23KT 25/11 A2987 RMK A01 T02470112  RH  043%=      5-min Rain = 0
KREE 150125Z 08016G21KT 24/11 A2987 RMK A01 T02440111  RH  044%=      5-min Rain = 0
KREE 150130Z 08016KT 24/11 A2988 RMK A01 T02430109  RH  044%=      5-min Rain = 0
KREE 150135Z 08015KT 24/11 A2988 RMK A01 T02390107  RH  044%=      5-min Rain = 0
KREE 150140Z 08015G20KT 24/11 A2988 RMK A01 T02350106  RH  045%=      5-min Rain = 0
KREE 150145Z 09014KT 23/11 A2989 RMK A01 T02330107  RH  046%=      5-min Rain = 0
KREE 150150Z 09015KT 23/11 A2989 RMK A01 T02320109  RH  047%=      5-min Rain = 0
KREE 150155Z 09015G20KT 23/11 A299 RMK A01 T02310110  RH  047%=      5-min Rain = 0
KREE 150200Z 09016G21KT 23/11 A299 RMK A01 T02310110  RH  047%=      5-min Rain = 0
KREE 150205Z 10013KT 23/11 A299 RMK A01 T02300112  RH  048%=      5-min Rain = 0
KREE 150210Z 10015KT 23/12 A299 RMK A01 T02310117  RH  049%=      5-min Rain = 0
KREE 150215Z 11015KT 23/12 A299 RMK A01 T02300119  RH  050%=      5-min Rain = 0
KREE 150220Z 11014KT 23/12 A299 RMK A01 T02300120  RH  051%=      5-min Rain = 0
KREE 150225Z 10013KT 23/12 A299 RMK A01 T02300120  RH  051%=      5-min Rain = 0
KREE 150230Z 10013KT 23/12 A299 RMK A01 T02300120  RH  051%=      5-min Rain = 0
KREE 150235Z 10012KT 23/12 A2991 RMK A01 T02300120  RH  051%=      5-min Rain = 0
KREE 150240Z 10014KT 23/12 A2991 RMK A01 T02300120  RH  051%=      5-min Rain = 0
KREE 150245Z 11012KT 23/12 A2991 RMK A01 T02300120  RH  051%=      5-min Rain = 0
KREE 150250Z 11012KT 23/12 A2991 RMK A01 T02310119  RH  050%=      5-min Rain = 0
KREE 150255Z 12014KT 24/12 A2991 RMK A01 T02350116  RH  048%=      5-min Rain = 0
KREE 150300Z 13014KT 24/11 A2992 RMK A01 T02410112  RH  045%=      5-min Rain = 0
KREE 150305Z 14014KT 24/11 A2992 RMK A01 T02440110  RH  044%=      5-min Rain = 0
KREE 150310Z 14013KT 25/11 A2992 RMK A01 T02450109  RH  043%=      5-min Rain = 0
KREE 150315Z 14015KT 25/11 A2992 RMK A01 T02460109  RH  043%=      5-min Rain = 0
KREE 150320Z 14017KT 25/11 A2992 RMK A01 T02500112  RH  043%=      5-min Rain = 0
KREE 150325Z 13019G25KT 25/11 A2992 RMK A01 T02530108  RH  041%=      5-min Rain = 0
KREE 150330Z 13019G25KT 25/10 A2992 RMK A01 T02520104  RH  040%=      5-min Rain = 0
KREE 150335Z 13018G25KT 25/11 A2992 RMK A01 T02470107  RH  042%=      5-min Rain = 0
KREE 150340Z 13018G23KT 24/11 A2993 RMK A01 T02430110  RH  044%=      5-min Rain = 0
KREE 150345Z 13018G24KT 24/11 A2993 RMK A01 T02410110  RH  044%=      5-min Rain = 0
KREE 150350Z 13018KT 24/11 A2993 RMK A01 T02400109  RH  044%=      5-min Rain = 0
KREE 150355Z 13016G21KT 24/11 A2993 RMK A01 T02380111  RH  046%=      5-min Rain = 0
KREE 150400Z 13016G21KT 24/11 A2993 RMK A01 T02360113  RH  047%=      5-min Rain = 0
KREE 150405Z 13015KT 24/11 A2994 RMK A01 T02350112  RH  047%=      5-min Rain = 0
KREE 150410Z 13016KT 24/11 A2994 RMK A01 T02350113  RH  047%=      5-min Rain = 0
KREE 150415Z 13016KT 23/11 A2994 RMK A01 T02340113  RH  047%=      5-min Rain = 0
KREE 150420Z 13013KT 23/11 A2994 RMK A01 T02320114  RH  048%=      5-min Rain = 0
KREE 150425Z 13014KT 23/12 A2994 RMK A01 T02300117  RH  050%=      5-min Rain = 0
KREE 150430Z 13015KT 23/12 A2994 RMK A01 T02290116  RH  050%=      5-min Rain = 0
KREE 150435Z 13015G21KT 23/12 A2994 RMK A01 T02290116  RH  050%=      5-min Rain = 0
KREE 150440Z 13014G19KT 23/12 A2994 RMK A01 T02270116  RH  050%=      5-min Rain = 0
KREE 150445Z 13014KT 23/12 A2994 RMK A01 T02250116  RH  051%=      5-min Rain = 0
KREE 150450Z 13015KT 23/12 A2994 RMK A01 T02250116  RH  051%=      5-min Rain = 0
KREE 150455Z 14014KT 23/12 A2994 RMK A01 T02250118  RH  052%=      5-min Rain = 0

Page generated in 0.0368 seconds.